createdAt,value
2019-02-27T00:01:03.278Z,102482.14
2019-02-27T00:03:33.044Z,102488.72
2019-02-27T00:06:00.076Z,102483.06
2019-02-27T00:08:27.662Z,102483.59
2019-02-27T00:10:54.438Z,102485.55
2019-02-27T00:13:24.750Z,102484.31
2019-02-27T00:15:50.802Z,102483.23
2019-02-27T00:18:17.599Z,102483.59
2019-02-27T00:20:49.140Z,102482.70
2019-02-27T00:23:16.474Z,102474.89
2019-02-27T00:25:45.159Z,102470.08
2019-02-27T00:28:12.814Z,102469.00
2019-02-27T00:30:39.782Z,102463.13
2019-02-27T00:33:07.095Z,102467.38
2019-02-27T00:35:34.058Z,102465.09
2019-02-27T00:38:00.935Z,102464.59
2019-02-27T00:40:28.094Z,102458.69
2019-02-27T00:42:55.016Z,102462.25
2019-02-27T00:45:22.401Z,102452.30
2019-02-27T00:47:53.300Z,102456.53
2019-02-27T00:50:20.712Z,102446.81
2019-02-27T00:52:50.850Z,102452.09
2019-02-27T00:55:16.547Z,102447.84
2019-02-27T00:57:43.356Z,102443.41
2019-02-27T01:00:13.627Z,102448.37
2019-02-27T01:02:42.025Z,102449.96
2019-02-27T01:05:10.353Z,102441.47
2019-02-27T01:07:37.973Z,102442.36
2019-02-27T01:10:12.047Z,102444.13
2019-02-27T01:12:37.305Z,102432.23
2019-02-27T01:15:05.124Z,102440.25
2019-02-27T01:17:32.198Z,102438.49
2019-02-27T01:19:59.057Z,102434.22
2019-02-27T01:22:26.365Z,102427.64
2019-02-27T01:24:53.066Z,102424.47
2019-02-27T01:27:21.425Z,102413.66
2019-02-27T01:29:51.081Z,102410.60
2019-02-27T01:32:17.249Z,102405.27
2019-02-27T01:34:45.133Z,102408.48
2019-02-27T01:37:12.295Z,102407.97
2019-02-27T01:39:41.834Z,102403.88
2019-02-27T01:42:08.138Z,102401.59
2019-02-27T01:44:35.444Z,102397.86
2019-02-27T01:47:03.047Z,102393.94
2019-02-27T01:49:30.273Z,102390.05
2019-02-27T01:51:59.123Z,102381.52
2019-02-27T01:54:26.826Z,102376.55
2019-02-27T01:56:54.350Z,102375.15
2019-02-27T01:59:21.955Z,102376.03
2019-02-27T02:01:49.407Z,102367.14
2019-02-27T02:04:19.989Z,102365.22
2019-02-27T02:06:46.634Z,102356.16
2019-02-27T02:09:34.472Z,102351.71
2019-02-27T02:12:07.835Z,102350.30
2019-02-27T02:14:54.460Z,102360.03
2019-02-27T02:17:50.640Z,102352.80
2019-02-27T02:20:28.779Z,102351.19
2019-02-27T02:23:06.074Z,102344.97
2019-02-27T02:26:14.454Z,102341.41
2019-02-27T02:29:42.026Z,102337.33
2019-02-27T02:32:17.518Z,102332.01
2019-02-27T02:35:14.841Z,102329.72
2019-02-27T02:38:21.585Z,102323.50
2019-02-27T02:41:35.969Z,102325.81
2019-02-27T02:44:12.858Z,102323.84
2019-02-27T02:46:54.156Z,102317.63
2019-02-27T02:49:47.290Z,102312.84
2019-02-27T02:52:40.933Z,102298.47
2019-02-27T02:55:34.591Z,102299.41
2019-02-27T02:58:13.668Z,102294.25
2019-02-27T03:01:00.554Z,102288.04
2019-02-27T03:03:48.748Z,102286.27
2019-02-27T03:06:53.032Z,102287.30
2019-02-27T03:09:59.978Z,102282.70
2019-02-27T03:13:06.045Z,102282.19
2019-02-27T03:16:15.554Z,102275.09
2019-02-27T03:19:11.530Z,102272.61
2019-02-27T03:22:03.753Z,102261.78
2019-02-27T03:25:19.978Z,102262.66
2019-02-27T03:28:19.801Z,102264.25
2019-02-27T03:31:18.067Z,102252.19
2019-02-27T03:34:32.622Z,102244.77
2019-02-27T03:37:24.060Z,102242.09
2019-02-27T03:40:33.071Z,102241.72
2019-02-27T03:43:45.622Z,102242.45
2019-02-27T03:46:33.118Z,102236.61
2019-02-27T03:49:20.862Z,102231.66
2019-02-27T03:52:10.163Z,102235.90
2019-02-27T03:55:11.365Z,102235.53
2019-02-27T03:58:14.243Z,102236.39
2019-02-27T04:01:17.398Z,102236.08
2019-02-27T04:04:30.611Z,102239.45
2019-02-27T04:07:09.246Z,102237.66
2019-02-27T04:09:36.424Z,102240.70
2019-02-27T04:12:03.794Z,102244.43
2019-02-27T04:14:32.344Z,102230.22
2019-02-27T04:17:05.455Z,102228.62
2019-02-27T04:19:29.655Z,102220.83
2019-02-27T04:22:00.544Z,102222.27
2019-02-27T04:24:26.549Z,102222.08
2019-02-27T04:26:53.763Z,102222.06
2019-02-27T04:29:21.074Z,102220.83
2019-02-27T04:31:48.643Z,102218.16
2019-02-27T04:34:15.890Z,102216.05
2019-02-27T04:36:46.981Z,102212.16
2019-02-27T04:39:14.581Z,102203.45
2019-02-27T04:41:42.053Z,102202.42
2019-02-27T04:44:09.488Z,102203.45
2019-02-27T04:46:36.310Z,102205.21
2019-02-27T04:49:04.871Z,102196.00
2019-02-27T04:51:32.405Z,102197.93
2019-02-27T04:54:00.685Z,102194.44
2019-02-27T04:56:27.937Z,102196.02
2019-02-27T04:58:54.730Z,102190.89
2019-02-27T05:01:22.009Z,102191.25
2019-02-27T05:03:49.351Z,102189.98
2019-02-27T05:06:16.520Z,102193.14
2019-02-27T05:08:43.196Z,102189.08
2019-02-27T05:11:14.016Z,102190.00
2019-02-27T05:13:39.633Z,102187.70
2019-02-27T05:16:07.180Z,102189.31
2019-02-27T05:18:33.862Z,102186.83
2019-02-27T05:21:00.953Z,102193.39
2019-02-27T05:23:27.623Z,102198.36
2019-02-27T05:25:54.529Z,102197.64
2019-02-27T05:28:21.890Z,102189.84
2019-02-27T05:30:49.569Z,102188.08
2019-02-27T05:33:16.264Z,102184.72
2019-02-27T05:35:43.875Z,102187.88
2019-02-27T05:38:10.589Z,102182.59
2019-02-27T05:40:37.392Z,102184.70
2019-02-27T05:43:04.601Z,102182.22
2019-02-27T05:45:31.647Z,102186.10
2019-02-27T05:47:59.106Z,102186.30
2019-02-27T05:50:25.799Z,102187.55
2019-02-27T05:52:52.810Z,102189.68
2019-02-27T05:55:20.574Z,102186.84
2019-02-27T05:57:47.572Z,102187.88
2019-02-27T06:00:15.321Z,102187.00
2019-02-27T06:02:44.981Z,102184.71
2019-02-27T06:05:10.838Z,102180.44
2019-02-27T06:07:38.051Z,102177.95
2019-02-27T06:10:06.827Z,102175.31
2019-02-27T06:12:33.544Z,102174.08
2019-02-27T06:15:01.117Z,102185.41
2019-02-27T06:17:28.163Z,102176.55
2019-02-27T06:19:54.843Z,102176.72
2019-02-27T06:22:21.532Z,102181.52
2019-02-27T06:24:48.794Z,102182.76
2019-02-27T06:27:15.954Z,102179.40
2019-02-27T06:29:43.022Z,102177.96
2019-02-27T06:32:12.146Z,102182.04
2019-02-27T06:34:39.436Z,102172.83
2019-02-27T06:37:06.794Z,102175.31
2019-02-27T06:39:34.464Z,102168.39
2019-02-27T06:42:02.305Z,102174.06
2019-02-27T06:44:30.832Z,102170.70
2019-02-27T06:46:58.070Z,102165.20
2019-02-27T06:49:25.099Z,102163.77
2019-02-27T06:51:52.681Z,102160.61
2019-02-27T06:54:19.386Z,102157.92
2019-02-27T06:56:46.090Z,102156.18
2019-02-27T06:59:13.308Z,102147.66
2019-02-27T07:01:40.731Z,102147.13
2019-02-27T07:04:08.324Z,102143.20
2019-02-27T07:06:36.882Z,102139.28
2019-02-27T07:09:05.670Z,102136.98
2019-02-27T07:11:34.534Z,102136.42
2019-02-27T07:14:01.242Z,102133.59
2019-02-27T07:16:28.012Z,102135.85
2019-02-27T07:18:55.087Z,102129.27
2019-02-27T07:21:22.638Z,102130.34
2019-02-27T07:23:50.218Z,102132.31
2019-02-27T07:26:17.962Z,102138.85
2019-02-27T07:28:44.850Z,102133.29
2019-02-27T07:31:17.270Z,102133.25
2019-02-27T07:33:41.709Z,102135.91
2019-02-27T07:36:09.333Z,102133.38
2019-02-27T07:38:37.032Z,102132.80
2019-02-27T07:41:04.774Z,102133.27
2019-02-27T07:43:31.906Z,102136.12
2019-02-27T07:46:00.106Z,102129.14
2019-02-27T07:48:28.388Z,102129.13
2019-02-27T07:50:55.723Z,102119.10
2019-02-27T07:53:22.619Z,102121.22
2019-02-27T07:55:49.696Z,102128.94
2019-02-27T07:58:17.914Z,102126.52
2019-02-27T08:00:47.136Z,102125.77
2019-02-27T08:03:15.169Z,102129.37
2019-02-27T08:05:42.828Z,102127.88
2019-02-27T08:08:12.214Z,102132.12
2019-02-27T08:10:40.184Z,102121.51
2019-02-27T08:13:07.489Z,102125.42
2019-02-27T08:15:34.890Z,102121.02
2019-02-27T08:18:02.724Z,102117.48
2019-02-27T08:20:29.876Z,102120.20
2019-02-27T08:22:57.975Z,102125.27
2019-02-27T08:25:25.103Z,102124.25
2019-02-27T08:27:54.152Z,102065.16
2019-02-27T08:30:21.370Z,102123.77
2019-02-27T08:32:49.327Z,102115.95
2019-02-27T08:35:17.174Z,102116.70
2019-02-27T08:37:44.215Z,102114.05
2019-02-27T08:40:11.198Z,102110.02
2019-02-27T08:42:40.561Z,102116.75
2019-02-27T08:45:08.071Z,102112.95
2019-02-27T08:47:34.739Z,102105.28
2019-02-27T08:50:02.784Z,102103.46
2019-02-27T08:52:30.425Z,102100.22
2019-02-27T08:54:57.895Z,102100.58
2019-02-27T08:57:24.563Z,102099.92
2019-02-27T08:59:51.402Z,102104.78
2019-02-27T09:02:18.934Z,102102.78
2019-02-27T09:04:46.212Z,102098.82
2019-02-27T09:07:12.898Z,102093.33
2019-02-27T09:09:40.082Z,102084.81
2019-02-27T09:12:07.119Z,102079.46
2019-02-27T09:14:33.811Z,102077.28
2019-02-27T09:17:00.993Z,102074.20
2019-02-27T09:19:28.350Z,102078.69
2019-02-27T09:21:56.014Z,102075.73
2019-02-27T09:24:23.158Z,102056.36
2019-02-27T09:26:49.833Z,102060.19
2019-02-27T09:29:18.711Z,102058.91
2019-02-27T09:31:50.775Z,102056.36
2019-02-27T09:34:15.446Z,102048.02
2019-02-27T09:36:43.879Z,102040.45
2019-02-27T09:39:11.496Z,102033.41
2019-02-27T09:41:38.272Z,102033.94
2019-02-27T09:44:05.741Z,102024.61
2019-02-27T09:46:33.263Z,102024.61
2019-02-27T09:48:59.945Z,102025.25
2019-02-27T09:51:27.045Z,102028.52
2019-02-27T09:53:54.805Z,102016.92
2019-02-27T09:56:21.581Z,102018.77
2019-02-27T09:58:48.818Z,102018.77
2019-02-27T10:01:17.278Z,102013.49
2019-02-27T10:03:44.412Z,101999.14
2019-02-27T10:06:11.784Z,101999.14
2019-02-27T10:08:38.563Z,102003.63
2019-02-27T10:11:05.979Z,101998.93
2019-02-27T10:13:37.497Z,102004.36
2019-02-27T10:16:03.672Z,102004.21
2019-02-27T10:18:30.681Z,101998.35
2019-02-27T10:20:58.162Z,101991.97
2019-02-27T10:23:24.838Z,101996.48
2019-02-27T10:25:51.521Z,101987.13
2019-02-27T10:28:18.696Z,101990.13
2019-02-27T10:30:49.569Z,101980.67
2019-02-27T10:33:14.662Z,101980.45
2019-02-27T10:35:42.074Z,101984.87
2019-02-27T10:38:09.537Z,101977.41
2019-02-27T10:40:36.680Z,101979.48
2019-02-27T10:43:03.480Z,101969.61
2019-02-27T10:45:30.253Z,101969.88
2019-02-27T10:47:57.173Z,101968.94
2019-02-27T10:50:24.098Z,101965.43
2019-02-27T10:52:50.831Z,101956.30
2019-02-27T10:55:18.255Z,101950.03
2019-02-27T10:57:46.749Z,101948.53
2019-02-27T11:00:17.458Z,101932.57
2019-02-27T11:02:45.189Z,101926.74
2019-02-27T11:05:15.109Z,101923.35
2019-02-27T11:07:42.877Z,101921.22
2019-02-27T11:10:10.562Z,101920.88
2019-02-27T11:12:38.566Z,101918.72
2019-02-27T11:15:08.182Z,101909.95
2019-02-27T11:17:35.501Z,101913.80
2019-02-27T11:20:02.763Z,101913.97
2019-02-27T11:22:31.772Z,101905.47
2019-02-27T11:24:59.717Z,101905.80
2019-02-27T11:27:27.994Z,101895.19
2019-02-27T11:29:59.611Z,101900.42
2019-02-27T11:32:24.056Z,101895.25
2019-02-27T11:34:51.380Z,101886.66
2019-02-27T11:37:18.533Z,101892.53
2019-02-27T11:39:45.575Z,101890.88
2019-02-27T11:42:12.773Z,101883.48
2019-02-27T11:44:40.731Z,101877.56
2019-02-27T11:47:10.892Z,101876.48
2019-02-27T11:49:38.757Z,101874.06
2019-02-27T11:52:06.551Z,101882.05
2019-02-27T11:54:33.817Z,101878.94
2019-02-27T11:57:00.501Z,101885.36
2019-02-27T11:59:27.686Z,101882.80
2019-02-27T12:01:56.151Z,101880.59
2019-02-27T12:04:24.039Z,101882.45
2019-02-27T12:06:51.710Z,101874.09
2019-02-27T12:09:19.567Z,101856.98
2019-02-27T12:11:48.707Z,101848.80
2019-02-27T12:14:15.181Z,101846.98
2019-02-27T12:16:42.249Z,101838.88
2019-02-27T12:19:09.480Z,101835.58
2019-02-27T12:21:36.382Z,101768.91
2019-02-27T12:24:05.381Z,101829.66
2019-02-27T12:26:34.454Z,101830.52
2019-02-27T12:29:01.701Z,101828.09
2019-02-27T12:31:28.837Z,101818.55
2019-02-27T12:33:56.448Z,101818.91
2019-02-27T12:36:23.840Z,101801.62
2019-02-27T12:38:51.507Z,101790.50
2019-02-27T12:41:18.974Z,101792.72
2019-02-27T12:43:52.189Z,101797.95
2019-02-27T12:46:17.479Z,101801.06
2019-02-27T12:48:46.424Z,101803.16
2019-02-27T12:51:14.720Z,101796.77
2019-02-27T12:53:42.497Z,101776.90
2019-02-27T12:56:09.462Z,101772.80
2019-02-27T12:58:39.195Z,101772.30
2019-02-27T13:01:06.612Z,101763.61
2019-02-27T13:03:34.556Z,101750.78
2019-02-27T13:06:01.814Z,101758.98
2019-02-27T13:08:28.603Z,101755.09
2019-02-27T13:10:56.522Z,101752.55
2019-02-27T13:13:25.861Z,101747.63
2019-02-27T13:15:53.596Z,101741.58
2019-02-27T13:18:21.472Z,101734.40
2019-02-27T13:20:49.223Z,101729.11
2019-02-27T13:23:16.545Z,101729.98
2019-02-27T13:25:43.840Z,101730.94
2019-02-27T13:28:11.082Z,101727.97
2019-02-27T13:30:41.312Z,101712.84
2019-02-27T13:33:07.210Z,101719.83
2019-02-27T13:35:34.687Z,101708.27
2019-02-27T13:38:02.456Z,101708.08
2019-02-27T13:40:35.267Z,101709.25
2019-02-27T13:42:58.714Z,101702.02
2019-02-27T13:45:25.858Z,101692.70
2019-02-27T13:47:52.877Z,101690.61
2019-02-27T13:50:24.409Z,101679.58
2019-02-27T13:52:50.731Z,101676.01
2019-02-27T13:55:18.192Z,101671.91
2019-02-27T13:57:45.321Z,101661.47
2019-02-27T14:00:20.957Z,101659.41
2019-02-27T14:02:48.520Z,101654.61
2019-02-27T14:05:16.251Z,101650.05
2019-02-27T14:07:44.004Z,101641.88
2019-02-27T14:10:16.660Z,101638.11
2019-02-27T14:12:41.530Z,101633.58
2019-02-27T14:15:09.234Z,101631.81
2019-02-27T14:17:41.348Z,101628.44
2019-02-27T14:20:08.217Z,101623.51
2019-02-27T14:22:34.918Z,101618.75
2019-02-27T14:25:01.767Z,101610.47
2019-02-27T14:27:29.596Z,101611.16
2019-02-27T14:29:56.284Z,101607.94
2019-02-27T14:32:23.366Z,101597.23
2019-02-27T14:34:50.097Z,101603.16
2019-02-27T14:37:17.256Z,101600.60
2019-02-27T14:39:43.977Z,101596.20
2019-02-27T14:42:11.131Z,101582.81
2019-02-27T14:44:38.932Z,101580.72
2019-02-27T14:47:05.655Z,101578.70
2019-02-27T14:49:33.624Z,101573.20
2019-02-27T14:52:01.189Z,101566.91
2019-02-27T14:54:29.082Z,101571.55
2019-02-27T14:56:56.906Z,101562.97
2019-02-27T14:59:23.713Z,101565.66
2019-02-27T15:01:51.433Z,101556.27
2019-02-27T15:04:20.190Z,101551.27
2019-02-27T15:06:50.372Z,101543.38
2019-02-27T15:09:16.973Z,101536.62
2019-02-27T15:11:44.941Z,101531.64
2019-02-27T15:14:12.436Z,101530.70
2019-02-27T15:16:39.251Z,101521.84
2019-02-27T15:19:06.430Z,101519.59
2019-02-27T15:21:33.697Z,101516.22
2019-02-27T15:24:01.360Z,101511.86
2019-02-27T15:26:29.260Z,101500.97
2019-02-27T15:28:56.429Z,101498.15
2019-02-27T15:31:23.255Z,101490.88
2019-02-27T15:33:50.625Z,101486.20
2019-02-27T15:36:17.510Z,101480.67
2019-02-27T15:38:47.024Z,101486.58
2019-02-27T15:41:16.763Z,101474.08
2019-02-27T15:43:43.967Z,101475.66
2019-02-27T15:46:11.287Z,101464.20
2019-02-27T15:48:40.875Z,101456.64
2019-02-27T15:51:07.900Z,101452.41
2019-02-27T15:53:35.502Z,101456.71
2019-02-27T15:56:05.479Z,101447.34
2019-02-27T15:58:32.112Z,101444.09
2019-02-27T16:00:59.729Z,101440.72
2019-02-27T16:03:26.869Z,101433.77
2019-02-27T16:05:54.273Z,101428.07
2019-02-27T16:08:23.436Z,101429.36
2019-02-27T16:10:54.727Z,101427.75
2019-02-27T16:13:20.881Z,101423.97
2019-02-27T16:15:49.171Z,101423.13
2019-02-27T16:18:16.750Z,101408.94
2019-02-27T16:20:43.576Z,101407.11
2019-02-27T16:23:10.259Z,101400.23
2019-02-27T16:25:37.666Z,101396.14
2019-02-27T16:28:04.579Z,101390.02
2019-02-27T16:30:33.044Z,101393.59
2019-02-27T16:33:00.649Z,101382.91
2019-02-27T16:35:27.946Z,101384.08
2019-02-27T16:37:57.583Z,101381.11
2019-02-27T16:40:24.741Z,101371.56
2019-02-27T16:42:52.869Z,101365.59
2019-02-27T16:45:22.676Z,101364.73
2019-02-27T16:47:49.880Z,101363.66
2019-02-27T16:50:23.902Z,101359.13
2019-02-27T16:52:48.247Z,101347.73
2019-02-27T16:55:16.271Z,101348.36
2019-02-27T16:57:43.067Z,101342.32
2019-02-27T17:00:12.673Z,101335.44
2019-02-27T17:02:40.501Z,101330.12
2019-02-27T17:05:08.874Z,101325.52
2019-02-27T17:07:38.359Z,101321.02
2019-02-27T17:10:09.104Z,101320.55
2019-02-27T17:12:38.260Z,101309.80
2019-02-27T17:15:05.033Z,101313.03
2019-02-27T17:17:32.532Z,101301.71
2019-02-27T17:19:59.732Z,101307.02
2019-02-27T17:22:26.431Z,101305.11
2019-02-27T17:24:55.197Z,101302.16
2019-02-27T17:27:22.165Z,101298.30
2019-02-27T17:29:49.442Z,101293.86
2019-02-27T17:32:16.229Z,101285.45
2019-02-27T17:34:47.278Z,101280.55
2019-02-27T17:37:11.903Z,101271.64
2019-02-27T17:39:39.796Z,101268.75
2019-02-27T17:42:06.533Z,101262.47
2019-02-27T17:44:35.289Z,101259.22
2019-02-27T17:47:02.402Z,101246.89
2019-02-27T17:49:30.744Z,101238.20
2019-02-27T17:51:58.308Z,101235.78
2019-02-27T17:54:25.758Z,101231.27
2019-02-27T17:56:53.737Z,101225.17
2019-02-27T17:59:21.304Z,101218.76
2019-02-27T18:01:48.306Z,101212.85
2019-02-27T18:04:15.550Z,101145.03
2019-02-27T18:06:42.642Z,101211.83
2019-02-27T18:09:11.082Z,101200.97
2019-02-27T18:11:38.842Z,101197.05
2019-02-27T18:14:09.980Z,101188.20
2019-02-27T18:16:36.538Z,101183.56
2019-02-27T18:19:03.889Z,101182.98
2019-02-27T18:21:33.814Z,101175.28
2019-02-27T18:24:00.174Z,101174.73
2019-02-27T18:26:28.251Z,101170.50
2019-02-27T18:28:55.473Z,101164.89
2019-02-27T18:31:26.681Z,101160.52
2019-02-27T18:33:51.613Z,101163.55
2019-02-27T18:36:19.172Z,101159.30
2019-02-27T18:38:46.639Z,101160.38
2019-02-27T18:41:14.511Z,101161.90
2019-02-27T18:43:43.175Z,101163.98
2019-02-27T18:46:10.301Z,101157.68
2019-02-27T18:48:37.585Z,101161.39
2019-02-27T18:51:04.385Z,101154.83
2019-02-27T18:53:32.279Z,101152.19
2019-02-27T18:56:01.929Z,101149.41
2019-02-27T18:58:28.597Z,101147.29
2019-02-27T19:00:55.285Z,101142.84
2019-02-27T19:03:25.418Z,101137.81
2019-02-27T19:05:51.201Z,101139.28
2019-02-27T19:08:18.471Z,101138.10
2019-02-27T19:10:45.706Z,101130.28
2019-02-27T19:13:12.900Z,101133.39
2019-02-27T19:15:45.299Z,101134.33
2019-02-27T19:18:09.940Z,101130.36
2019-02-27T19:20:37.420Z,101128.94
2019-02-27T19:23:04.642Z,101125.64
2019-02-27T19:25:34.812Z,101124.66
2019-02-27T19:28:01.416Z,101126.80
2019-02-27T19:30:28.872Z,101123.50
2019-02-27T19:33:01.593Z,101123.11
2019-02-27T19:35:25.426Z,101121.61
2019-02-27T19:37:52.465Z,101120.26
2019-02-27T19:40:20.659Z,101110.50
2019-02-27T19:42:52.657Z,101120.03
2019-02-27T19:45:20.613Z,101112.86
2019-02-27T19:47:51.848Z,101112.18
2019-02-27T19:50:18.322Z,101107.55
2019-02-27T19:52:45.331Z,101096.84
2019-02-27T19:55:13.545Z,101096.84
2019-02-27T19:57:42.327Z,101084.97
2019-02-27T20:00:10.299Z,101079.92
2019-02-27T20:02:38.770Z,101079.92
2019-02-27T20:05:06.623Z,101080.84
2019-02-27T20:07:35.787Z,101070.33
2019-02-27T20:10:04.058Z,101073.98
2019-02-27T20:12:31.601Z,101073.98
2019-02-27T20:14:59.795Z,101058.41
2019-02-27T20:17:32.825Z,101060.71
2019-02-27T20:19:57.052Z,101057.59
2019-02-27T20:22:23.844Z,101057.59
2019-02-27T20:24:51.038Z,101056.05
2019-02-27T20:27:18.730Z,101056.58
2019-02-27T20:29:45.946Z,101051.39
2019-02-27T20:32:14.523Z,101049.63
2019-02-27T20:34:45.903Z,101041.97
2019-02-27T20:37:15.317Z,101031.84
2019-02-27T20:39:43.983Z,101025.92
2019-02-27T20:42:13.671Z,101018.48
2019-02-27T20:44:39.702Z,101004.55
2019-02-27T20:47:24.160Z,101004.55
2019-02-27T20:50:20.858Z,101005.66
2019-02-27T20:53:02.342Z,100997.65
2019-02-27T20:55:48.954Z,100999.26
2019-02-27T20:58:34.811Z,100998.27
2019-02-27T21:01:18.721Z,100990.73
2019-02-27T21:04:06.192Z,100976.64
2019-02-27T21:06:53.478Z,100976.64
2019-02-27T21:09:23.845Z,100971.28
2019-02-27T21:11:50.534Z,100964.23
2019-02-27T21:14:20.562Z,100968.23
2019-02-27T21:16:48.090Z,100959.54
2019-02-27T21:19:15.059Z,100956.86
2019-02-27T21:21:41.986Z,100947.86
2019-02-27T21:24:10.165Z,100939.03
2019-02-27T21:26:36.936Z,100945.09
2019-02-27T21:29:05.238Z,100939.60
2019-02-27T21:31:33.689Z,100940.55
2019-02-27T21:34:01.097Z,100937.39
2019-02-27T21:36:28.387Z,100932.47
2019-02-27T21:38:55.799Z,100931.30
2019-02-27T21:41:22.854Z,100927.03
2019-02-27T21:43:50.636Z,100934.55
2019-02-27T21:46:17.546Z,100932.82
2019-02-27T21:48:44.712Z,100929.63
2019-02-27T21:51:13.863Z,100929.31
2019-02-27T21:53:42.006Z,100929.63
2019-02-27T21:56:09.444Z,100929.63
2019-02-27T21:58:36.688Z,100929.29
2019-02-27T22:01:03.510Z,100930.80
2019-02-27T22:03:30.388Z,100929.03
2019-02-27T22:05:58.196Z,100919.34
2019-02-27T22:08:25.576Z,100916.58
2019-02-27T22:10:53.744Z,100905.86
2019-02-27T22:13:28.899Z,100906.20
2019-02-27T22:15:55.801Z,100886.75
2019-02-27T22:18:19.012Z,100886.75
2019-02-27T22:20:46.379Z,100884.11
2019-02-27T22:23:13.698Z,100878.70
2019-02-27T22:25:40.778Z,100871.05
2019-02-27T22:28:07.949Z,100863.44
2019-02-27T22:30:34.891Z,100871.20
2019-02-27T22:33:02.321Z,100871.20
2019-02-27T22:35:30.440Z,100866.79
2019-02-27T22:37:57.945Z,100865.83
2019-02-27T22:40:24.616Z,100869.75
2019-02-27T22:42:51.760Z,100868.12
2019-02-27T22:45:19.425Z,100865.01
2019-02-27T22:47:47.197Z,100864.17
2019-02-27T22:50:15.443Z,100850.70
2019-02-27T22:52:42.762Z,100845.25
2019-02-27T22:55:10.751Z,100845.80
2019-02-27T22:57:37.786Z,100845.12
2019-02-27T23:00:18.275Z,100842.70
2019-02-27T23:02:47.442Z,100840.81
2019-02-27T23:05:14.490Z,100838.22
2019-02-27T23:07:42.193Z,100828.89
2019-02-27T23:10:09.865Z,100826.73
2019-02-27T23:12:39.466Z,100833.63
2019-02-27T23:15:07.285Z,100827.78
2019-02-27T23:17:33.974Z,100826.92
2019-02-27T23:20:00.991Z,100825.31
2019-02-27T23:22:29.688Z,100820.23
2019-02-27T23:25:05.924Z,100820.48
2019-02-27T23:27:33.428Z,100817.61
2019-02-27T23:30:00.427Z,100812.05
2019-02-27T23:32:29.162Z,100814.94
2019-02-27T23:34:56.297Z,100816.97
2019-02-27T23:37:24.271Z,100804.88
2019-02-27T23:39:51.390Z,100807.59
2019-02-27T23:42:18.098Z,100800.63
2019-02-27T23:44:44.991Z,100790.55
2019-02-27T23:47:12.439Z,100789.53
2019-02-27T23:49:40.285Z,100787.58
2019-02-27T23:52:07.670Z,100781.97
2019-02-27T23:54:35.790Z,100777.13
2019-02-27T23:57:03.719Z,100773.28
2019-02-27T23:59:32.979Z,100771.80
